createdAt,value
2022-10-26T00:00:01.950Z,25.30
2022-10-26T00:06:13.011Z,25.40
2022-10-26T00:12:27.576Z,25.30
2022-10-26T00:18:42.568Z,25.30
2022-10-26T00:24:54.252Z,25.30
2022-10-26T00:31:15.327Z,25.40
2022-10-26T00:37:28.984Z,25.40
2022-10-26T00:43:42.603Z,25.40
2022-10-26T00:49:53.768Z,25.30
2022-10-26T00:56:06.581Z,25.20
2022-10-26T01:02:20.975Z,25.10
2022-10-26T01:08:36.278Z,25.10
2022-10-26T01:14:51.296Z,25.10
2022-10-26T01:21:32.378Z,25.10
2022-10-26T01:27:45.509Z,25.10
2022-10-26T01:33:57.544Z,25.20
2022-10-26T01:40:13.970Z,25.10
2022-10-26T01:46:21.907Z,25.10
2022-10-26T01:52:31.041Z,25.10
2022-10-26T01:58:54.507Z,25.10
2022-10-26T02:05:23.808Z,25.00
2022-10-26T02:11:39.830Z,25.00
2022-10-26T02:17:53.515Z,24.90
2022-10-26T02:30:18.195Z,25.00
2022-10-26T02:36:34.523Z,24.90
2022-10-26T02:42:50.231Z,24.90
2022-10-26T02:49:01.678Z,24.90
2022-10-26T02:55:16.813Z,25.00
2022-10-26T03:01:26.468Z,25.00
2022-10-26T03:07:37.919Z,25.00
2022-10-26T03:13:48.702Z,24.90
2022-10-26T03:19:59.839Z,24.90
2022-10-26T03:26:17.381Z,25.10
2022-10-26T03:32:28.972Z,24.90
2022-10-26T03:38:42.484Z,24.80
2022-10-26T03:44:57.513Z,24.80
2022-10-26T03:51:11.077Z,24.80
2022-10-26T03:57:21.993Z,25.00
2022-10-26T04:03:35.017Z,24.90
2022-10-26T04:09:47.307Z,24.80
2022-10-26T04:16:00.594Z,24.70
2022-10-26T04:22:13.967Z,24.80
2022-10-26T04:28:23.538Z,24.90
2022-10-26T04:34:33.372Z,24.70
2022-10-26T04:40:44.431Z,24.70
2022-10-26T04:46:59.937Z,24.60
2022-10-26T04:53:12.051Z,24.70
2022-10-26T04:59:27.417Z,24.80
2022-10-26T05:05:41.301Z,24.60
2022-10-26T05:11:53.316Z,24.60
2022-10-26T05:18:04.563Z,24.50
2022-10-26T05:24:18.945Z,24.70
2022-10-26T05:30:31.392Z,24.70
2022-10-26T05:36:42.549Z,24.50
2022-10-26T05:42:58.052Z,24.40
2022-10-26T05:49:11.514Z,24.40
2022-10-26T05:55:28.370Z,24.70
2022-10-26T06:01:45.567Z,24.70
2022-10-26T06:08:00.890Z,24.50
2022-10-26T06:14:13.990Z,24.40
2022-10-26T06:20:40.084Z,24.40
2022-10-26T06:26:58.563Z,24.60
2022-10-26T06:33:25.019Z,24.50
2022-10-26T06:39:27.666Z,24.40
2022-10-26T06:45:40.347Z,24.40
2022-10-26T06:51:56.804Z,24.40
2022-10-26T06:58:10.335Z,24.60
2022-10-26T07:04:22.410Z,24.40
2022-10-26T07:10:37.676Z,24.40
2022-10-26T07:16:50.034Z,24.30
2022-10-26T07:23:03.393Z,24.40
2022-10-26T07:29:17.275Z,24.40
2022-10-26T07:35:30.593Z,24.30
2022-10-26T07:41:43.915Z,24.30
2022-10-26T07:47:57.297Z,24.30
2022-10-26T07:54:13.468Z,24.40
2022-10-26T08:00:27.896Z,24.40
2022-10-26T08:06:38.161Z,24.20
2022-10-26T08:12:49.241Z,24.20
2022-10-26T08:19:01.871Z,24.20
2022-10-26T08:25:17.721Z,24.30
2022-10-26T08:31:29.700Z,24.20
2022-10-26T08:37:39.728Z,24.10
2022-10-26T08:43:50.631Z,24.10
2022-10-26T08:50:06.351Z,24.20
2022-10-26T08:56:22.824Z,24.20
2022-10-26T09:02:32.522Z,24.10
2022-10-26T09:08:47.396Z,24.00
2022-10-26T09:15:03.553Z,24.00
2022-10-26T09:21:20.029Z,24.00
2022-10-26T09:27:32.043Z,24.10
2022-10-26T09:33:45.552Z,24.10
2022-10-26T09:40:07.675Z,24.00
2022-10-26T09:46:22.159Z,23.90
2022-10-26T09:52:37.204Z,24.00
2022-10-26T09:58:49.569Z,24.00
2022-10-26T10:05:02.722Z,23.90
2022-10-26T10:11:15.513Z,23.90
2022-10-26T10:17:29.189Z,23.90
2022-10-26T10:23:45.903Z,23.90
2022-10-26T10:30:02.986Z,23.90
2022-10-26T10:36:17.466Z,23.80
2022-10-26T10:42:31.670Z,23.80
2022-10-26T10:48:45.111Z,23.70
2022-10-26T10:54:59.300Z,24.00
2022-10-26T11:01:12.209Z,23.90
2022-10-26T11:07:28.272Z,23.80
2022-10-26T11:13:42.299Z,23.70
2022-10-26T11:19:57.130Z,23.80
2022-10-26T11:26:13.433Z,23.90
2022-10-26T11:32:27.314Z,23.70
2022-10-26T11:38:46.625Z,23.70
2022-10-26T11:44:53.133Z,23.70
2022-10-26T11:51:06.621Z,23.80
2022-10-26T11:57:20.458Z,23.80
2022-10-26T12:03:38.876Z,23.80
2022-10-26T12:09:55.156Z,23.70
2022-10-26T12:16:17.215Z,23.70
2022-10-26T12:22:29.452Z,23.70
2022-10-26T12:28:52.351Z,23.60
2022-10-26T12:35:11.764Z,23.60
2022-10-26T12:41:36.402Z,23.50
2022-10-26T12:54:52.004Z,23.50
2022-10-26T13:01:23.216Z,23.50
2022-10-26T13:07:36.646Z,23.60
2022-10-26T13:13:50.187Z,23.70
2022-10-26T13:20:04.724Z,23.70
2022-10-26T13:26:18.487Z,23.90
2022-10-26T13:32:27.990Z,23.90
2022-10-26T13:38:44.425Z,23.90
2022-10-26T13:45:01.583Z,23.90
2022-10-26T13:51:25.133Z,23.90
2022-10-26T13:57:39.915Z,24.00
2022-10-26T14:03:52.858Z,23.90
2022-10-26T14:10:08.383Z,23.90
2022-10-26T14:16:22.845Z,23.90
2022-10-26T14:22:34.312Z,24.00
2022-10-26T14:28:52.097Z,24.00
2022-10-26T14:35:06.184Z,23.90
2022-10-26T14:41:21.939Z,23.80
2022-10-26T14:47:37.953Z,23.90
2022-10-26T14:53:57.117Z,24.10
2022-10-26T15:00:21.171Z,24.20
2022-10-26T15:06:45.752Z,24.20
2022-10-26T15:12:59.282Z,24.20
2022-10-26T15:19:16.093Z,24.20
2022-10-26T15:25:33.733Z,24.20
2022-10-26T15:31:46.019Z,24.10
2022-10-26T15:38:04.492Z,24.10
2022-10-26T15:44:17.317Z,24.00
2022-10-26T15:50:35.603Z,24.10
2022-10-26T15:56:47.244Z,24.20
2022-10-26T16:03:02.053Z,24.10
2022-10-26T16:09:16.357Z,24.00
2022-10-26T16:15:26.246Z,24.00
2022-10-26T16:21:37.766Z,24.20
2022-10-26T16:27:55.346Z,24.30
2022-10-26T16:34:08.490Z,24.10
2022-10-26T16:40:18.281Z,24.10
2022-10-26T16:53:05.308Z,24.10
2022-10-26T16:59:17.031Z,24.20
2022-10-26T17:05:29.183Z,24.20
2022-10-26T17:11:43.383Z,24.20
2022-10-26T17:17:52.654Z,24.10
2022-10-26T17:24:09.561Z,24.30
2022-10-26T17:30:23.686Z,24.30
2022-10-26T17:36:44.785Z,24.20
2022-10-26T17:42:57.795Z,24.20
2022-10-26T17:49:11.545Z,24.20
2022-10-26T17:55:25.402Z,24.20
2022-10-26T18:01:40.072Z,24.10
2022-10-26T18:07:52.721Z,24.00
2022-10-26T18:14:02.681Z,23.90
2022-10-26T18:20:13.603Z,24.00
2022-10-26T18:26:29.917Z,24.10
2022-10-26T18:32:42.227Z,24.00
2022-10-26T18:38:52.198Z,23.90
2022-10-26T18:45:03.979Z,23.90
2022-10-26T18:51:15.318Z,23.90
2022-10-26T18:57:30.770Z,24.00
2022-10-26T19:03:41.716Z,23.90
2022-10-26T19:09:54.242Z,23.80
2022-10-26T19:16:21.745Z,23.80
2022-10-26T19:22:27.394Z,23.90
2022-10-26T19:28:42.001Z,23.90
2022-10-26T19:34:56.778Z,23.80
2022-10-26T19:41:16.900Z,23.80
2022-10-26T19:47:28.006Z,23.80
2022-10-26T19:53:41.173Z,23.90
2022-10-26T19:59:57.269Z,23.90
2022-10-26T20:06:12.947Z,23.80
2022-10-26T20:12:28.791Z,23.80
2022-10-26T20:18:42.684Z,23.80
2022-10-26T20:24:56.820Z,24.00
2022-10-26T20:31:12.456Z,23.90
2022-10-26T20:37:28.093Z,23.90
2022-10-26T20:43:43.641Z,23.80
2022-10-26T20:50:00.047Z,23.80
2022-10-26T20:56:18.542Z,23.90
2022-10-26T21:02:32.629Z,24.00
2022-10-26T21:08:43.224Z,23.90
2022-10-26T21:14:58.636Z,23.80
2022-10-26T21:21:12.262Z,23.90
2022-10-26T21:27:28.531Z,23.90
2022-10-26T21:33:46.257Z,23.80
2022-10-26T21:40:00.466Z,23.90
2022-10-26T21:46:15.398Z,23.80
2022-10-26T21:52:31.957Z,23.90
2022-10-26T21:58:49.640Z,23.90
2022-10-26T22:05:02.814Z,23.90
2022-10-26T22:11:18.561Z,24.00
2022-10-26T22:17:34.374Z,24.00
2022-10-26T22:23:45.644Z,23.90
2022-10-26T22:29:56.617Z,24.00
2022-10-26T22:36:12.818Z,24.10
2022-10-26T22:42:25.150Z,24.10
2022-10-26T22:48:37.148Z,24.20
2022-10-26T22:54:51.496Z,24.10
2022-10-26T23:01:10.775Z,24.20
2022-10-26T23:07:25.792Z,24.20
2022-10-26T23:13:41.439Z,24.20
2022-10-26T23:19:53.350Z,24.20
2022-10-26T23:26:13.046Z,24.40
2022-10-26T23:32:27.225Z,24.40
2022-10-26T23:38:42.799Z,24.40
2022-10-26T23:44:59.231Z,24.40
2022-10-26T23:51:15.203Z,24.40
2022-10-26T23:57:30.935Z,24.40
